createdAt,value
2018-10-01T00:00:36.738Z,79.10
2018-10-01T00:02:29.569Z,79.38
2018-10-01T00:03:29.545Z,78.81
2018-10-01T00:05:22.307Z,78.81
2018-10-01T00:06:22.272Z,78.81
2018-10-01T00:08:15.582Z,78.52
2018-10-01T00:09:15.533Z,79.38
2018-10-01T00:11:08.334Z,79.00
2018-10-01T00:12:08.299Z,78.72
2018-10-01T00:14:01.627Z,79.57
2018-10-01T00:15:01.564Z,78.52
2018-10-01T00:16:54.365Z,78.72
2018-10-01T00:17:54.329Z,79.28
2018-10-01T00:19:47.162Z,78.62
2018-10-01T00:20:47.103Z,78.52
2018-10-01T00:22:39.908Z,78.81
2018-10-01T00:23:39.865Z,78.72
2018-10-01T00:25:32.700Z,78.91
2018-10-01T00:26:32.645Z,78.72
2018-10-01T00:28:25.964Z,79.10
2018-10-01T00:29:25.910Z,78.81
2018-10-01T00:31:18.718Z,79.28
2018-10-01T00:32:18.696Z,79.38
2018-10-01T00:34:12.000Z,79.28
2018-10-01T00:35:11.945Z,79.38
2018-10-01T00:37:05.252Z,78.91
2018-10-01T00:38:05.214Z,78.81
2018-10-01T00:39:58.026Z,79.19
2018-10-01T00:40:57.976Z,79.10
2018-10-01T00:42:50.790Z,78.72
2018-10-01T00:43:50.746Z,79.19
2018-10-01T00:45:43.571Z,78.75
2018-10-01T00:46:43.517Z,78.43
2018-10-01T00:48:36.819Z,78.75
2018-10-01T00:49:36.786Z,78.85
2018-10-01T00:51:29.602Z,78.66
2018-10-01T00:52:29.549Z,78.28
2018-10-01T00:54:22.369Z,78.28
2018-10-01T00:55:22.320Z,78.47
2018-10-01T00:57:15.126Z,78.66
2018-10-01T00:58:15.106Z,78.47
2018-10-01T01:00:08.395Z,78.75
2018-10-01T01:01:08.362Z,78.37
2018-10-01T01:03:01.650Z,78.37
2018-10-01T01:04:01.631Z,78.47
2018-10-01T01:05:54.444Z,78.94
2018-10-01T01:06:54.389Z,79.14
2018-10-01T01:08:47.191Z,78.91
2018-10-01T01:09:47.159Z,78.81
2018-10-01T01:11:39.979Z,78.81
2018-10-01T01:12:39.941Z,79.10
2018-10-01T01:14:32.755Z,79.00
2018-10-01T01:15:32.716Z,79.10
2018-10-01T01:17:26.026Z,79.10
2018-10-01T01:18:25.981Z,79.00
2018-10-01T01:20:19.297Z,78.23
2018-10-01T01:21:19.236Z,78.52
2018-10-01T01:23:12.043Z,78.81
2018-10-01T01:24:12.016Z,78.91
2018-10-01T01:26:05.318Z,79.10
2018-10-01T01:27:05.276Z,78.91
2018-10-01T01:28:58.588Z,79.00
2018-10-01T01:29:58.532Z,79.28
2018-10-01T01:31:51.355Z,79.19
2018-10-01T01:32:51.296Z,79.00
2018-10-01T01:34:44.605Z,79.00
2018-10-01T01:35:44.565Z,79.10
2018-10-01T01:37:37.393Z,78.91
2018-10-01T01:38:37.333Z,78.91
2018-10-01T01:40:30.688Z,79.86
2018-10-01T01:41:30.607Z,79.57
2018-10-01T01:43:23.898Z,79.67
2018-10-01T01:44:23.881Z,79.67
2018-10-01T01:46:17.183Z,79.67
2018-10-01T01:47:17.141Z,79.48
2018-10-01T01:49:10.428Z,79.48
2018-10-01T01:50:10.412Z,79.57
2018-10-01T01:52:03.224Z,79.57
2018-10-01T01:53:03.153Z,79.48
2018-10-01T01:54:55.984Z,79.48
2018-10-01T01:55:55.933Z,79.48
2018-10-01T01:57:49.254Z,79.57
2018-10-01T01:58:49.203Z,79.38
2018-10-01T02:00:42.497Z,79.48
2018-10-01T02:01:42.467Z,79.67
2018-10-01T02:03:35.272Z,79.67
2018-10-01T02:04:35.217Z,79.67
2018-10-01T02:06:28.570Z,79.28
2018-10-01T02:07:28.480Z,79.67
2018-10-01T02:09:21.789Z,80.05
2018-10-01T02:10:21.755Z,79.77
2018-10-01T02:12:15.075Z,79.48
2018-10-01T02:13:15.022Z,79.57
2018-10-01T02:15:08.329Z,79.57
2018-10-01T02:16:08.303Z,79.67
2018-10-01T02:18:01.605Z,79.57
2018-10-01T02:19:01.561Z,79.96
2018-10-01T02:20:54.860Z,79.86
2018-10-01T02:21:54.828Z,79.86
2018-10-01T02:23:48.130Z,79.96
2018-10-01T02:24:48.080Z,79.57
2018-10-01T02:26:40.888Z,79.86
2018-10-01T02:27:40.848Z,79.96
2018-10-01T02:29:34.155Z,80.05
2018-10-01T02:30:34.114Z,79.38
2018-10-01T02:32:26.925Z,79.57
2018-10-01T02:33:26.875Z,79.48
2018-10-01T02:35:20.168Z,79.48
2018-10-01T02:36:20.145Z,79.57
2018-10-01T02:38:13.449Z,79.48
2018-10-01T02:39:13.409Z,79.38
2018-10-01T02:41:06.705Z,80.53
2018-10-01T02:42:06.655Z,80.39
2018-10-01T02:43:59.475Z,80.72
2018-10-01T02:44:59.420Z,80.62
2018-10-01T02:46:52.230Z,80.43
2018-10-01T02:47:52.253Z,80.81
2018-10-01T02:49:45.021Z,81.01
2018-10-01T02:50:44.964Z,80.91
2018-10-01T02:52:38.264Z,81.44
2018-10-01T02:53:38.235Z,81.25
2018-10-01T02:55:31.545Z,81.73
2018-10-01T02:56:31.482Z,82.01
2018-10-01T02:58:24.310Z,82.11
2018-10-01T02:59:24.253Z,82.20
2018-10-01T03:01:17.052Z,82.20
2018-10-01T03:02:17.025Z,82.59
2018-10-01T03:04:09.832Z,82.49
2018-10-01T03:05:09.777Z,82.49
2018-10-01T03:07:02.582Z,82.30
2018-10-01T03:08:02.545Z,83.16
2018-10-01T03:09:55.860Z,83.16
2018-10-01T03:10:55.809Z,83.25
2018-10-01T03:12:48.614Z,83.25
2018-10-01T03:13:48.576Z,83.35
2018-10-01T03:15:41.406Z,83.25
2018-10-01T03:16:41.353Z,83.35
2018-10-01T03:18:34.641Z,82.97
2018-10-01T03:19:34.621Z,82.78
2018-10-01T03:21:27.450Z,83.06
2018-10-01T03:22:27.380Z,82.97
2018-10-01T03:24:20.686Z,83.25
2018-10-01T03:25:20.640Z,83.35
2018-10-01T03:27:13.446Z,83.35
2018-10-01T03:28:13.407Z,83.44
2018-10-01T03:30:06.746Z,83.25
2018-10-01T03:31:06.696Z,83.16
2018-10-01T03:33:00.006Z,83.25
2018-10-01T03:33:59.962Z,83.25
2018-10-01T03:35:53.272Z,83.06
2018-10-01T03:36:53.214Z,83.44
2018-10-01T03:38:46.042Z,82.97
2018-10-01T03:39:45.996Z,83.54
2018-10-01T03:41:38.812Z,82.68
2018-10-01T03:42:38.766Z,82.68
2018-10-01T03:44:32.064Z,82.40
2018-10-01T03:45:32.021Z,82.49
2018-10-01T03:47:24.854Z,82.68
2018-10-01T03:48:24.799Z,82.59
2018-10-01T03:50:17.610Z,82.87
2018-10-01T03:51:17.556Z,82.40
2018-10-01T03:53:10.856Z,82.30
2018-10-01T03:54:10.828Z,82.30
2018-10-01T03:56:03.637Z,82.59
2018-10-01T03:57:03.582Z,82.68
2018-10-01T03:58:56.417Z,83.06
2018-10-01T03:59:56.354Z,83.16
2018-10-01T04:01:49.168Z,83.35
2018-10-01T04:02:49.141Z,83.06
2018-10-01T04:04:41.928Z,83.54
2018-10-01T04:05:41.889Z,83.25
2018-10-01T04:07:34.709Z,83.44
2018-10-01T04:08:34.652Z,83.25
2018-10-01T04:10:27.462Z,83.06
2018-10-01T04:11:27.427Z,83.06
2018-10-01T04:13:20.233Z,83.25
2018-10-01T04:14:20.172Z,83.83
2018-10-01T04:16:13.487Z,83.83
2018-10-01T04:17:13.458Z,84.11
2018-10-01T04:19:06.273Z,83.83
2018-10-01T04:20:06.219Z,83.64
2018-10-01T04:21:59.529Z,83.83
2018-10-01T04:22:59.474Z,83.73
2018-10-01T04:24:52.777Z,83.92
2018-10-01T04:25:52.734Z,84.01
2018-10-01T04:27:45.538Z,83.92
2018-10-01T04:28:45.503Z,83.92
2018-10-01T04:30:38.299Z,83.92
2018-10-01T04:31:38.262Z,83.92
2018-10-01T04:33:31.575Z,83.54
2018-10-01T04:34:31.532Z,82.97
2018-10-01T04:36:24.330Z,82.97
2018-10-01T04:37:24.294Z,83.16
2018-10-01T04:39:17.609Z,82.97
2018-10-01T04:40:17.554Z,83.06
2018-10-01T04:42:10.370Z,83.25
2018-10-01T04:43:10.315Z,83.44
2018-10-01T04:45:03.135Z,83.25
2018-10-01T04:46:03.084Z,83.25
2018-10-01T04:47:56.405Z,83.25
2018-10-01T04:48:56.343Z,82.59
2018-10-01T04:50:49.639Z,82.49
2018-10-01T04:51:49.600Z,82.59
2018-10-01T04:53:42.914Z,82.59
2018-10-01T04:54:42.862Z,82.40
2018-10-01T04:56:36.164Z,82.40
2018-10-01T04:57:36.129Z,82.40
2018-10-01T04:59:28.955Z,82.87
2018-10-01T05:00:28.896Z,82.49
2018-10-01T05:02:22.201Z,83.06
2018-10-01T05:03:22.157Z,83.54
2018-10-01T05:05:14.969Z,83.35
2018-10-01T05:06:14.954Z,83.25
2018-10-01T05:08:07.780Z,83.35
2018-10-01T05:09:07.699Z,82.97
2018-10-01T05:11:00.496Z,83.35
2018-10-01T05:12:00.459Z,83.35
2018-10-01T05:13:53.767Z,83.44
2018-10-01T05:14:53.805Z,82.78
2018-10-01T05:16:47.021Z,83.44
2018-10-01T05:17:46.970Z,83.06
2018-10-01T05:19:40.290Z,83.25
2018-10-01T05:20:40.238Z,83.44
2018-10-01T05:22:33.556Z,83.25
2018-10-01T05:23:33.520Z,83.25
2018-10-01T05:25:26.437Z,83.25
2018-10-01T05:26:26.293Z,83.06
2018-10-01T05:28:19.598Z,83.44
2018-10-01T05:29:19.557Z,83.25
2018-10-01T05:31:12.875Z,83.06
2018-10-01T05:32:12.815Z,83.44
2018-10-01T05:34:06.106Z,82.59
2018-10-01T05:35:06.082Z,83.25
2018-10-01T05:36:58.901Z,83.25
2018-10-01T05:37:59.015Z,82.78
2018-10-01T05:39:52.167Z,82.59
2018-10-01T05:40:52.162Z,83.06
2018-10-01T05:42:44.923Z,82.68
2018-10-01T05:43:44.890Z,82.59
2018-10-01T05:45:38.194Z,82.59
2018-10-01T05:46:38.135Z,82.40
2018-10-01T05:48:30.969Z,82.68
2018-10-01T05:49:30.901Z,82.49
2018-10-01T05:51:23.723Z,82.01
2018-10-01T05:52:23.692Z,82.20
2018-10-01T05:54:16.979Z,82.40
2018-10-01T05:55:16.939Z,82.49
2018-10-01T05:57:10.270Z,82.40
2018-10-01T05:58:10.208Z,82.20
2018-10-01T06:00:03.494Z,82.54
2018-10-01T06:01:03.463Z,82.30
2018-10-01T06:02:56.758Z,82.26
2018-10-01T06:03:56.713Z,82.49
2018-10-01T06:05:49.522Z,82.35
2018-10-01T06:06:49.474Z,82.68
2018-10-01T06:08:42.294Z,82.35
2018-10-01T06:09:42.243Z,82.45
2018-10-01T06:11:35.089Z,82.59
2018-10-01T06:12:35.037Z,82.59
2018-10-01T06:14:28.323Z,82.45
2018-10-01T06:15:28.294Z,82.83
2018-10-01T06:17:21.097Z,82.83
2018-10-01T06:18:21.047Z,82.87
2018-10-01T06:20:13.864Z,83.35
2018-10-01T06:21:13.819Z,83.25
2018-10-01T06:23:07.131Z,82.83
2018-10-01T06:24:07.084Z,83.31
2018-10-01T06:26:00.394Z,83.12
2018-10-01T06:27:00.344Z,83.02
2018-10-01T06:28:53.193Z,83.31
2018-10-01T06:29:53.113Z,83.21
2018-10-01T06:31:46.428Z,83.02
2018-10-01T06:32:46.374Z,83.50
2018-10-01T06:34:39.679Z,83.31
2018-10-01T06:35:39.633Z,83.12
2018-10-01T06:37:32.460Z,82.92
2018-10-01T06:38:32.404Z,83.21
2018-10-01T06:40:25.209Z,83.02
2018-10-01T06:41:25.175Z,83.50
2018-10-01T06:43:18.015Z,82.83
2018-10-01T06:44:17.958Z,82.35
2018-10-01T06:46:11.254Z,81.97
2018-10-01T06:47:11.215Z,82.17
2018-10-01T06:49:04.020Z,82.11
2018-10-01T06:50:03.988Z,82.20
2018-10-01T06:51:56.776Z,82.26
2018-10-01T06:52:56.745Z,82.01
2018-10-01T06:54:49.559Z,82.17
2018-10-01T06:55:49.505Z,81.82
2018-10-01T06:57:42.330Z,82.11
2018-10-01T06:58:42.279Z,81.92
2018-10-01T07:00:35.591Z,81.73
2018-10-01T07:01:35.554Z,81.82
2018-10-01T07:03:28.355Z,81.44
2018-10-01T07:04:28.300Z,81.15
2018-10-01T07:06:21.106Z,81.35
2018-10-01T07:07:21.088Z,81.35
2018-10-01T07:09:13.885Z,81.35
2018-10-01T07:10:13.835Z,81.44
2018-10-01T07:12:06.671Z,81.35
2018-10-01T07:13:06.606Z,81.40
2018-10-01T07:14:59.429Z,81.49
2018-10-01T07:15:59.379Z,82.01
2018-10-01T07:17:52.196Z,81.82
2018-10-01T07:18:52.169Z,81.92
2018-10-01T07:20:44.961Z,81.63
2018-10-01T07:21:44.901Z,81.73
2018-10-01T07:23:37.714Z,82.07
2018-10-01T07:24:37.671Z,82.20
2018-10-01T07:26:30.480Z,82.20
2018-10-01T07:27:30.447Z,82.01
2018-10-01T07:29:23.272Z,81.63
2018-10-01T07:30:23.220Z,81.82
2018-10-01T07:32:16.521Z,81.82
2018-10-01T07:33:16.481Z,81.82
2018-10-01T07:35:09.781Z,81.97
2018-10-01T07:36:09.731Z,81.82
2018-10-01T07:38:03.038Z,81.25
2018-10-01T07:39:03.117Z,81.35
2018-10-01T07:40:56.307Z,81.44
2018-10-01T07:41:56.260Z,81.44
2018-10-01T07:43:49.550Z,80.49
2018-10-01T07:44:49.550Z,79.63
2018-10-01T07:46:42.825Z,79.44
2018-10-01T07:47:42.776Z,79.15
2018-10-01T07:49:35.572Z,79.44
2018-10-01T07:50:35.601Z,79.53
2018-10-01T07:52:28.360Z,79.63
2018-10-01T07:53:28.357Z,79.19
2018-10-01T07:55:21.152Z,79.38
2018-10-01T07:56:21.076Z,79.28
2018-10-01T07:58:13.872Z,78.91
2018-10-01T07:59:13.843Z,79.28
2018-10-01T08:01:07.153Z,79.00
2018-10-01T08:02:07.161Z,79.10
2018-10-01T08:03:59.904Z,79.10
2018-10-01T08:04:59.868Z,78.23
2018-10-01T08:06:53.186Z,78.91
2018-10-01T08:07:53.137Z,78.72
2018-10-01T08:09:46.440Z,78.43
2018-10-01T08:10:46.403Z,78.33
2018-10-01T08:12:39.222Z,78.62
2018-10-01T08:13:39.164Z,78.33
2018-10-01T08:15:32.472Z,78.62
2018-10-01T08:16:32.443Z,78.52
2018-10-01T08:18:25.747Z,78.43
2018-10-01T08:19:25.700Z,78.62
2018-10-01T08:21:18.515Z,79.00
2018-10-01T08:22:18.468Z,78.62
2018-10-01T08:24:11.268Z,78.62
2018-10-01T08:25:11.232Z,78.62
2018-10-01T08:27:04.050Z,78.62
2018-10-01T08:28:03.999Z,78.62
2018-10-01T08:29:56.929Z,78.52
2018-10-01T08:30:56.769Z,78.52
2018-10-01T08:32:49.578Z,78.23
2018-10-01T08:33:49.533Z,78.33
2018-10-01T08:35:42.350Z,78.37
2018-10-01T08:36:42.308Z,78.47
2018-10-01T08:38:35.162Z,78.37
2018-10-01T08:39:35.074Z,77.61
2018-10-01T08:41:27.929Z,77.51
2018-10-01T08:42:27.839Z,77.51
2018-10-01T08:44:20.693Z,76.37
2018-10-01T08:45:20.599Z,76.98
2018-10-01T08:47:13.522Z,76.79
2018-10-01T08:48:13.372Z,76.50
2018-10-01T08:50:06.190Z,75.64
2018-10-01T08:51:06.151Z,76.12
2018-10-01T08:52:58.983Z,76.60
2018-10-01T08:53:58.909Z,76.69
2018-10-01T08:55:51.719Z,76.88
2018-10-01T08:56:51.691Z,76.69
2018-10-01T08:58:44.494Z,75.93
2018-10-01T08:59:44.461Z,75.68
2018-10-01T09:01:37.750Z,75.39
2018-10-01T09:02:37.745Z,75.49
2018-10-01T09:04:30.544Z,75.20
2018-10-01T09:05:30.530Z,74.53
2018-10-01T09:07:23.304Z,74.73
2018-10-01T09:08:23.287Z,74.73
2018-10-01T09:10:16.090Z,74.24
2018-10-01T09:11:16.064Z,74.24
2018-10-01T09:13:08.864Z,73.71
2018-10-01T09:14:08.867Z,73.99
2018-10-01T09:16:01.627Z,73.58
2018-10-01T09:17:01.633Z,73.67
2018-10-01T09:18:54.899Z,73.80
2018-10-01T09:19:54.890Z,73.33
2018-10-01T09:21:47.664Z,72.75
2018-10-01T09:22:47.620Z,73.52
2018-10-01T09:24:40.935Z,72.56
2018-10-01T09:25:40.886Z,73.33
2018-10-01T09:27:33.697Z,72.66
2018-10-01T09:28:33.660Z,72.66
2018-10-01T09:30:26.972Z,72.50
2018-10-01T09:31:26.920Z,73.08
2018-10-01T09:33:19.735Z,72.41
2018-10-01T09:34:19.701Z,72.41
2018-10-01T09:36:12.532Z,71.55
2018-10-01T09:37:12.480Z,71.36
2018-10-01T09:39:05.314Z,71.83
2018-10-01T09:40:05.314Z,72.41
2018-10-01T09:41:58.103Z,70.78
2018-10-01T09:42:58.026Z,70.75
2018-10-01T09:44:50.843Z,71.83
2018-10-01T09:45:50.800Z,71.55
2018-10-01T09:47:43.610Z,70.34
2018-10-01T09:48:43.572Z,69.03
2018-10-01T09:50:36.940Z,67.25
2018-10-01T09:51:36.842Z,65.23
2018-10-01T09:53:29.662Z,64.31
2018-10-01T09:54:29.623Z,63.13
2018-10-01T09:56:22.959Z,65.42
2018-10-01T09:57:22.896Z,64.85
2018-10-01T09:59:16.221Z,65.23
2018-10-01T10:00:16.184Z,64.66
2018-10-01T10:02:09.554Z,63.39
2018-10-01T10:03:09.488Z,64.25
2018-10-01T10:05:02.782Z,64.98
2018-10-01T10:06:02.753Z,65.08
2018-10-01T10:07:55.623Z,65.30
2018-10-01T10:08:55.522Z,65.39
2018-10-01T10:10:48.846Z,65.74
2018-10-01T10:11:48.802Z,65.94
2018-10-01T10:13:41.608Z,66.41
2018-10-01T10:14:41.645Z,67.18
2018-10-01T10:16:35.122Z,67.53
2018-10-01T10:17:34.878Z,68.10
2018-10-01T10:19:27.669Z,68.10
2018-10-01T10:20:27.651Z,66.19
2018-10-01T10:22:20.960Z,68.74
2018-10-01T10:23:20.907Z,70.56
2018-10-01T10:25:14.203Z,71.80
2018-10-01T10:26:14.254Z,71.42
2018-10-01T10:28:07.538Z,71.47
2018-10-01T10:29:07.434Z,71.67
2018-10-01T10:31:00.753Z,71.57
2018-10-01T10:32:00.723Z,71.80
2018-10-01T10:33:54.019Z,71.16
2018-10-01T10:34:53.968Z,70.47
2018-10-01T10:36:47.300Z,64.50
2018-10-01T10:37:47.247Z,63.19
2018-10-01T10:39:40.621Z,57.68
2018-10-01T10:40:40.529Z,55.47
2018-10-01T10:42:33.857Z,54.00
2018-10-01T10:43:33.810Z,53.13
2018-10-01T10:45:27.123Z,52.00
2018-10-01T10:46:27.097Z,52.54
2018-10-01T10:48:20.425Z,49.65
2018-10-01T10:49:20.381Z,50.42
2018-10-01T10:51:13.267Z,48.61
2018-10-01T10:52:13.231Z,48.69
2018-10-01T10:54:06.074Z,51.88
2018-10-01T10:55:06.029Z,53.35
2018-10-01T10:56:59.394Z,58.64
2018-10-01T10:57:59.317Z,60.28
2018-10-01T10:59:52.638Z,64.47
2018-10-01T11:00:52.606Z,65.68
2018-10-01T11:02:45.436Z,68.62
2018-10-01T11:03:45.389Z,69.10
2018-10-01T11:05:38.686Z,70.25
2018-10-01T11:06:38.667Z,70.41
2018-10-01T11:08:32.029Z,70.18
2018-10-01T11:09:31.932Z,71.62
2018-10-01T11:11:25.256Z,71.33
2018-10-01T11:12:25.211Z,71.77
2018-10-01T11:14:18.676Z,72.67
2018-10-01T11:15:18.676Z,73.54
2018-10-01T11:17:11.828Z,72.83
2018-10-01T11:18:11.779Z,72.34
2018-10-01T11:20:05.180Z,73.55
2018-10-01T11:21:05.205Z,73.75
2018-10-01T11:22:58.406Z,74.28
2018-10-01T11:23:58.355Z,74.76
2018-10-01T11:25:51.642Z,74.91
2018-10-01T11:26:51.670Z,75.87
2018-10-01T11:28:44.944Z,76.10
2018-10-01T11:29:44.876Z,75.62
2018-10-01T11:31:37.782Z,76.54
2018-10-01T11:32:37.672Z,76.06
2018-10-01T11:34:31.043Z,75.71
2018-10-01T11:35:30.984Z,75.81
2018-10-01T11:37:24.241Z,74.13
2018-10-01T11:38:24.211Z,74.80
2018-10-01T11:40:17.530Z,73.75
2018-10-01T11:41:17.491Z,74.32
2018-10-01T11:43:10.291Z,73.71
2018-10-01T11:44:10.251Z,73.99
2018-10-01T11:46:03.591Z,74.13
2018-10-01T11:47:03.553Z,73.17
2018-10-01T11:48:56.887Z,73.02
2018-10-01T11:49:56.826Z,72.77
2018-10-01T11:51:49.631Z,70.73
2018-10-01T11:52:49.606Z,69.20
2018-10-01T11:54:42.425Z,71.07
2018-10-01T11:55:42.378Z,72.66
2018-10-01T11:57:35.784Z,76.69
2018-10-01T11:58:35.656Z,77.26
2018-10-01T12:00:28.988Z,78.94
2018-10-01T12:01:28.931Z,78.94
2018-10-01T12:03:21.744Z,79.28
2018-10-01T12:04:21.704Z,79.38
2018-10-01T12:06:15.012Z,80.15
2018-10-01T12:07:14.971Z,80.81
2018-10-01T12:09:08.308Z,81.38
2018-10-01T12:10:08.264Z,81.54
2018-10-01T12:12:01.546Z,81.35
2018-10-01T12:13:01.497Z,82.20
2018-10-01T12:14:54.816Z,82.30
2018-10-01T12:15:54.956Z,81.73
2018-10-01T12:17:47.566Z,82.20
2018-10-01T12:18:47.532Z,82.40
2018-10-01T12:20:40.842Z,83.16
2018-10-01T12:21:40.867Z,83.06
2018-10-01T12:23:34.098Z,83.16
2018-10-01T12:24:34.062Z,83.25
2018-10-01T12:26:27.368Z,83.25
2018-10-01T12:27:27.429Z,82.59
2018-10-01T12:29:20.617Z,82.78
2018-10-01T12:30:20.585Z,83.25
2018-10-01T12:32:13.909Z,83.25
2018-10-01T12:33:13.897Z,83.16
2018-10-01T12:35:07.265Z,83.73
2018-10-01T12:36:07.130Z,83.16
2018-10-01T12:38:00.467Z,83.25
2018-10-01T12:39:00.447Z,83.44
2018-10-01T12:40:53.703Z,83.54
2018-10-01T12:41:53.647Z,82.40
2018-10-01T12:43:46.988Z,82.49
2018-10-01T12:44:46.949Z,82.59
2018-10-01T12:46:40.265Z,81.86
2018-10-01T12:47:40.216Z,82.34
2018-10-01T12:49:33.022Z,82.43
2018-10-01T12:50:33.034Z,81.29
2018-10-01T12:52:26.304Z,81.20
2018-10-01T12:53:26.245Z,80.15
2018-10-01T12:55:19.584Z,79.96
2018-10-01T12:56:19.588Z,79.77
2018-10-01T12:58:12.864Z,79.61
2018-10-01T12:59:12.810Z,79.43
2018-10-01T13:01:06.112Z,79.33
2018-10-01T13:02:06.075Z,79.61
2018-10-01T13:03:59.395Z,78.56
2018-10-01T13:04:59.361Z,78.22
2018-10-01T13:06:52.731Z,79.27
2018-10-01T13:07:52.631Z,78.99
2018-10-01T13:09:45.920Z,78.13
2018-10-01T13:10:45.884Z,78.03
2018-10-01T13:12:39.265Z,77.74
2018-10-01T13:13:39.183Z,78.31
2018-10-01T13:15:32.452Z,77.70
2018-10-01T13:16:32.415Z,78.28
2018-10-01T13:18:25.769Z,77.70
2018-10-01T13:19:25.684Z,78.37
2018-10-01T13:21:18.981Z,78.94
2018-10-01T13:22:18.951Z,78.28
2018-10-01T13:24:12.347Z,78.18
2018-10-01T13:25:12.251Z,78.66
2018-10-01T13:27:05.509Z,77.51
2018-10-01T13:28:05.470Z,78.18
2018-10-01T13:29:58.818Z,77.99
2018-10-01T13:30:58.737Z,77.70
2018-10-01T13:32:52.066Z,76.27
2018-10-01T13:33:52.001Z,76.37
2018-10-01T13:35:45.312Z,76.69
2018-10-01T13:36:45.405Z,75.16
2018-10-01T13:38:38.586Z,74.69
2018-10-01T13:39:38.565Z,74.11
2018-10-01T13:41:31.835Z,73.54
2018-10-01T13:42:31.812Z,74.30
2018-10-01T13:44:25.162Z,73.25
2018-10-01T13:45:25.075Z,74.59
2018-10-01T13:47:18.370Z,73.63
2018-10-01T13:48:18.568Z,73.54
2018-10-01T13:50:11.666Z,73.92
2018-10-01T13:51:11.612Z,74.11
2018-10-01T13:53:04.936Z,75.07
2018-10-01T13:54:04.891Z,74.11
2018-10-01T13:55:58.172Z,75.16
2018-10-01T13:56:58.143Z,74.88
2018-10-01T13:58:51.454Z,74.49
2018-10-01T13:59:51.404Z,74.88
2018-10-01T14:01:44.759Z,74.69
2018-10-01T14:02:44.706Z,74.78
2018-10-01T14:04:38.016Z,75.16
2018-10-01T14:05:38.035Z,76.56
2018-10-01T14:07:31.296Z,78.14
2018-10-01T14:08:31.238Z,76.52
2018-10-01T14:10:24.548Z,77.82
2018-10-01T14:11:24.506Z,79.00
2018-10-01T14:13:17.872Z,78.33
2018-10-01T14:14:17.777Z,78.14
2018-10-01T14:16:11.085Z,77.32
2018-10-01T14:17:11.038Z,76.75
2018-10-01T14:19:04.377Z,76.79
2018-10-01T14:20:04.517Z,77.17
2018-10-01T14:21:57.631Z,75.59
2018-10-01T14:22:57.576Z,75.62
2018-10-01T14:24:50.914Z,73.14
2018-10-01T14:25:50.838Z,73.52
2018-10-01T14:27:44.136Z,72.66
2018-10-01T14:28:44.117Z,71.16
2018-10-01T14:30:37.520Z,70.87
2018-10-01T14:31:37.383Z,71.39
2018-10-01T14:33:30.699Z,69.00
2018-10-01T14:34:30.658Z,68.04
2018-10-01T14:36:24.113Z,64.02
2018-10-01T14:37:23.933Z,62.46
2018-10-01T14:39:17.248Z,62.11
2018-10-01T14:40:17.255Z,61.44
2018-10-01T14:42:10.585Z,60.29
2018-10-01T14:43:10.560Z,60.48
2018-10-01T14:45:03.845Z,57.04
2018-10-01T14:46:03.754Z,57.29
2018-10-01T14:47:57.128Z,59.27
2018-10-01T14:48:57.038Z,59.08
2018-10-01T14:50:50.334Z,58.89
2018-10-01T14:51:50.314Z,58.80
2018-10-01T14:53:43.624Z,58.89
2018-10-01T14:54:43.571Z,59.75
2018-10-01T14:56:36.900Z,58.92
2018-10-01T14:57:36.854Z,58.92
2018-10-01T14:59:30.141Z,56.56
2018-10-01T15:00:30.270Z,54.93
2018-10-01T15:02:23.443Z,55.22
2018-10-01T15:03:23.385Z,53.78
2018-10-01T15:05:16.689Z,53.69
2018-10-01T15:06:16.751Z,53.88
2018-10-01T15:08:10.005Z,52.63
2018-10-01T15:09:09.936Z,53.02
2018-10-01T15:11:03.281Z,51.36
2018-10-01T15:12:03.216Z,53.28
2018-10-01T15:13:56.541Z,52.70
2018-10-01T15:14:56.489Z,53.66
2018-10-01T15:16:49.319Z,54.88
2018-10-01T15:17:49.265Z,56.02
2018-10-01T15:19:42.584Z,56.47
2018-10-01T15:20:42.556Z,57.62
2018-10-01T15:22:35.875Z,58.83
2018-10-01T15:23:35.826Z,59.88
2018-10-01T15:25:29.119Z,61.03
2018-10-01T15:26:29.079Z,61.79
2018-10-01T15:28:22.395Z,62.08
2018-10-01T15:29:22.351Z,62.37
2018-10-01T15:31:15.656Z,64.09
2018-10-01T15:32:15.611Z,63.99
2018-10-01T15:34:08.947Z,64.75
2018-10-01T15:35:08.882Z,64.75
2018-10-01T15:37:02.182Z,65.33
2018-10-01T15:38:02.144Z,64.50
2018-10-01T15:39:54.990Z,64.78
2018-10-01T15:40:54.936Z,63.99
2018-10-01T15:42:48.240Z,64.65
2018-10-01T15:43:48.202Z,65.52
2018-10-01T15:45:41.013Z,66.09
2018-10-01T15:46:40.978Z,66.38
2018-10-01T15:48:34.318Z,66.66
2018-10-01T15:49:34.254Z,67.43
2018-10-01T15:51:27.545Z,66.72
2018-10-01T15:52:27.685Z,67.49
2018-10-01T15:54:20.828Z,68.35
2018-10-01T15:55:20.771Z,68.73
2018-10-01T15:57:13.577Z,69.93
2018-10-01T15:58:13.543Z,69.56
2018-10-01T16:00:06.410Z,71.23
2018-10-01T16:01:06.307Z,72.48
2018-10-01T16:02:59.107Z,73.14
2018-10-01T16:03:59.070Z,73.01
2018-10-01T16:05:51.887Z,73.39
2018-10-01T16:06:51.842Z,73.96
2018-10-01T16:08:44.699Z,74.35
2018-10-01T16:09:44.648Z,74.25
2018-10-01T16:11:37.953Z,74.63
2018-10-01T16:12:37.893Z,74.73
2018-10-01T16:14:31.235Z,74.63
2018-10-01T16:15:31.172Z,74.44
2018-10-01T16:17:23.973Z,73.87
2018-10-01T16:18:23.942Z,73.39
2018-10-01T16:20:16.754Z,73.49
2018-10-01T16:21:16.707Z,73.96
2018-10-01T16:23:09.508Z,73.39
2018-10-01T16:24:09.471Z,73.96
2018-10-01T16:26:02.776Z,73.49
2018-10-01T16:27:02.746Z,73.77
2018-10-01T16:28:55.544Z,74.16
2018-10-01T16:29:55.493Z,74.44
2018-10-01T16:31:48.307Z,74.16
2018-10-01T16:32:48.268Z,74.35
2018-10-01T16:34:41.602Z,74.82
2018-10-01T16:35:41.514Z,74.54
2018-10-01T16:37:34.834Z,74.92
2018-10-01T16:38:34.793Z,74.73
2018-10-01T16:40:27.619Z,74.54
2018-10-01T16:41:27.558Z,74.16
2018-10-01T16:43:20.857Z,75.11
2018-10-01T16:44:20.819Z,74.92
2018-10-01T16:46:14.128Z,74.63
2018-10-01T16:47:14.077Z,75.01
2018-10-01T16:49:07.407Z,74.54
2018-10-01T16:50:07.345Z,74.63
2018-10-01T16:52:00.682Z,75.11
2018-10-01T16:53:00.588Z,75.40
2018-10-01T16:54:53.902Z,75.45
2018-10-01T16:55:53.858Z,75.96
2018-10-01T16:57:47.180Z,75.45
2018-10-01T16:58:47.125Z,75.87
2018-10-01T17:00:40.443Z,76.21
2018-10-01T17:01:40.388Z,76.12
2018-10-01T17:03:33.194Z,76.50
2018-10-01T17:04:33.167Z,76.54
2018-10-01T17:06:26.524Z,77.26
2018-10-01T17:07:26.470Z,76.82
2018-10-01T17:09:19.269Z,76.79
2018-10-01T17:10:19.243Z,76.50
2018-10-01T17:12:12.050Z,77.17
2018-10-01T17:13:12.028Z,77.45
2018-10-01T17:15:05.308Z,77.17
2018-10-01T17:16:05.259Z,77.93
2018-10-01T17:17:58.606Z,78.12
2018-10-01T17:18:58.524Z,80.98
2018-10-01T17:20:51.812Z,82.08
2018-10-01T17:21:51.791Z,82.27
2018-10-01T17:23:45.094Z,82.84
2018-10-01T17:24:45.039Z,82.93
2018-10-01T17:26:37.859Z,82.93
2018-10-01T17:27:37.800Z,82.27
2018-10-01T17:29:31.121Z,81.98
2018-10-01T17:30:31.065Z,81.79
2018-10-01T17:32:24.393Z,82.27
2018-10-01T17:33:24.341Z,82.37
2018-10-01T17:35:17.636Z,82.37
2018-10-01T17:36:17.596Z,81.98
2018-10-01T17:38:10.974Z,82.27
2018-10-01T17:39:10.855Z,82.37
2018-10-01T17:41:03.667Z,82.08
2018-10-01T17:42:03.624Z,81.89
2018-10-01T17:43:56.439Z,82.37
2018-10-01T17:44:56.416Z,82.23
2018-10-01T17:46:49.680Z,82.42
2018-10-01T17:47:49.656Z,82.61
2018-10-01T17:49:42.460Z,82.32
2018-10-01T17:50:42.504Z,82.37
2018-10-01T17:52:35.241Z,82.32
2018-10-01T17:53:35.215Z,82.32
2018-10-01T17:55:28.476Z,82.70
2018-10-01T17:56:28.436Z,82.90
2018-10-01T17:58:21.737Z,82.80
2018-10-01T17:59:21.690Z,82.99
2018-10-01T18:01:14.488Z,82.70
2018-10-01T18:02:14.457Z,83.09
2018-10-01T18:04:07.275Z,82.99
2018-10-01T18:05:07.222Z,83.09
2018-10-01T18:07:00.602Z,82.61
2018-10-01T18:08:00.481Z,82.61
2018-10-01T18:09:53.288Z,83.09
2018-10-01T18:10:53.248Z,83.28
2018-10-01T18:12:46.528Z,82.90
2018-10-01T18:13:46.488Z,83.09
2018-10-01T18:15:39.794Z,83.18
2018-10-01T18:16:39.741Z,82.70
2018-10-01T18:18:33.063Z,82.90
2018-10-01T18:19:33.008Z,82.80
2018-10-01T18:21:26.305Z,83.09
2018-10-01T18:22:26.268Z,82.90
2018-10-01T18:24:19.588Z,82.42
2018-10-01T18:25:19.535Z,82.51
2018-10-01T18:27:12.813Z,82.80
2018-10-01T18:28:12.794Z,82.48
2018-10-01T18:30:06.149Z,82.32
2018-10-01T18:31:06.046Z,82.90
2018-10-01T18:32:59.373Z,83.09
2018-10-01T18:33:59.295Z,82.51